Terminal Aerodrome Forecast
Issued by NWS Honolulu, HI

Home | Current Version | Previous Version | Text Only | Print | Product List | Glossary On
Versions: 1 2 3 4 5 6 7 8 9 10 11 12 13 14 15 16 17 18 19 20 21
000
FTPA31 PHFO 171124
TAFHNL
TAF
PHNL 171124Z 1712/1818 05007KT P6SM FEW025 SCT045
     FM171500 34005KT P6SM FEW025 SCT045
     FM172000 07012KT P6SM FEW030 SCT050
     FM180600 06009KT P6SM FEW030 SCT050=

USA.gov is the U.S. government's official web portal to all federal, state and local government web resources and services.